Главная страница
METAR-TAF:

METAR-TAF

Аэропорты :

Атырау, Казахстан

широта: 47-07-19N, долгота: 051-49-17E, высота над уровнем моря: -22 м

Текущие метеонаблюдения

Эта сводка был подготовлена 37 минут назад, в 07:30 UTC
Ветер 8 Узел от северо-восточный, изменяющийся между северный и восточный
Температура 28°C
Влажность 27%
Давление 1010 hPa
Видимость 10 км и более
Нет облачности ниже 1500 м, и нет кучево-дождевой облачности

METAR: UATG 190730Z 04004MPS 360V080 CAVOK 28/07 Q1010 R32/CLRD70 NOSIG RMK QFE760/1013

Время: 14:07 (08:07 UTC)

Прогноз

Эта сводка был подготовлена 3 часа и 4 минут назад, в 05:03 UTC
Прогноз действительный с 19-го 06 UTC до 20-го 06 UTC
Ветер 16 Узел от северо-западный
Видимость 10 км и более
Нет облачности ниже 1500 м, и нет кучево-дождевой облачности
изменения
С 19-го 15 UTC до 19-го 16 UTC
Ветер 10 Узел от западный

TAF: UATG 190503Z 1906/2006 32008MPS CAVOK TX31/1912Z TN16/2001Z BECMG 1915/1916 27005MPS

Метеонаблюдения и прогнозы для более 4000 аэропортов (сводки METAR и TAF).

Имеющиеся станции представлены на карте желтыми и красными точками.

Чтобы увидеть название станции, наведите на нее мышь.

Затем щелкните, чтобы увидеть метеонаблюдения и метеопрогнозы.

Управление картой: чтобы увеличить масштаб, щелкните зеленые кнопки с черным крестиком; чтобы уменьшить масштаб, щелкните зеленую кнопку с тире; для просмотра соседних карт щелкайте зеленые стрелки.


METAR-TAF: